sensor_id;sensor_type;location;lat;lon;timestamp;P1;durP1;ratioP1;P2;durP2;ratioP2
82372;SDS011;72000;42.828;23.382;2023-12-22T00:00:47;17.02;;;6.10;;
82372;SDS011;72000;42.828;23.382;2023-12-22T00:03:14;15.27;;;5.68;;
82372;SDS011;72000;42.828;23.382;2023-12-22T00:05:40;13.43;;;4.93;;
82372;SDS011;72000;42.828;23.382;2023-12-22T00:08:06;14.38;;;5.00;;
82372;SDS011;72000;42.828;23.382;2023-12-22T00:10:31;12.98;;;5.18;;
82372;SDS011;72000;42.828;23.382;2023-12-22T00:12:57;12.75;;;5.50;;
82372;SDS011;72000;42.828;23.382;2023-12-22T00:15:22;12.85;;;4.95;;
82372;SDS011;72000;42.828;23.382;2023-12-22T00:17:48;14.00;;;5.55;;
82372;SDS011;72000;42.828;23.382;2023-12-22T00:20:14;14.57;;;5.40;;
82372;SDS011;72000;42.828;23.382;2023-12-22T00:22:40;14.27;;;5.75;;
82372;SDS011;72000;42.828;23.382;2023-12-22T00:25:05;15.25;;;5.65;;
82372;SDS011;72000;42.828;23.382;2023-12-22T00:27:33;14.77;;;5.78;;
82372;SDS011;72000;42.828;23.382;2023-12-22T00:29:58;42.95;;;11.45;;
82372;SDS011;72000;42.828;23.382;2023-12-22T00:32:24;28.67;;;8.70;;
82372;SDS011;72000;42.828;23.382;2023-12-22T00:34:50;44.35;;;10.80;;
82372;SDS011;72000;42.828;23.382;2023-12-22T00:37:15;37.90;;;9.75;;
82372;SDS011;72000;42.828;23.382;2023-12-22T00:39:41;29.52;;;8.77;;
82372;SDS011;72000;42.828;23.382;2023-12-22T00:42:06;19.05;;;6.20;;
82372;SDS011;72000;42.828;23.382;2023-12-22T00:44:32;14.23;;;5.57;;
82372;SDS011;72000;42.828;23.382;2023-12-22T00:46:58;12.35;;;5.18;;
82372;SDS011;72000;42.828;23.382;2023-12-22T00:49:23;21.30;;;6.95;;
82372;SDS011;72000;42.828;23.382;2023-12-22T00:51:49;14.65;;;5.65;;
82372;SDS011;72000;42.828;23.382;2023-12-22T00:54:14;23.27;;;6.95;;
82372;SDS011;72000;42.828;23.382;2023-12-22T00:56:40;20.88;;;6.15;;
82372;SDS011;72000;42.828;23.382;2023-12-22T00:59:05;16.25;;;6.07;;
82372;SDS011;72000;42.828;23.382;2023-12-22T01:01:31;15.45;;;5.97;;
82372;SDS011;72000;42.828;23.382;2023-12-22T01:03:57;17.02;;;6.15;;
82372;SDS011;72000;42.828;23.382;2023-12-22T01:06:22;18.35;;;7.32;;
82372;SDS011;72000;42.828;23.382;2023-12-22T01:08:48;17.08;;;6.68;;
82372;SDS011;72000;42.828;23.382;2023-12-22T01:11:16;18.48;;;7.13;;
82372;SDS011;72000;42.828;23.382;2023-12-22T01:13:42;16.70;;;6.53;;
82372;SDS011;72000;42.828;23.382;2023-12-22T01:16:08;17.65;;;6.40;;
82372;SDS011;72000;42.828;23.382;2023-12-22T01:18:34;17.02;;;6.50;;
82372;SDS011;72000;42.828;23.382;2023-12-22T01:21:00;18.05;;;7.47;;
82372;SDS011;72000;42.828;23.382;2023-12-22T01:23:25;19.08;;;7.00;;
82372;SDS011;72000;42.828;23.382;2023-12-22T01:25:51;18.42;;;7.15;;
82372;SDS011;72000;42.828;23.382;2023-12-22T01:28:17;18.27;;;7.30;;
82372;SDS011;72000;42.828;23.382;2023-12-22T01:30:43;18.38;;;7.20;;
82372;SDS011;72000;42.828;23.382;2023-12-22T01:33:08;17.33;;;6.63;;
82372;SDS011;72000;42.828;23.382;2023-12-22T01:35:34;18.90;;;7.15;;
82372;SDS011;72000;42.828;23.382;2023-12-22T01:37:59;19.92;;;7.32;;
82372;SDS011;72000;42.828;23.382;2023-12-22T01:40:25;17.10;;;7.07;;
82372;SDS011;72000;42.828;23.382;2023-12-22T01:42:50;16.83;;;6.90;;
82372;SDS011;72000;42.828;23.382;2023-12-22T01:45:16;16.95;;;6.57;;
82372;SDS011;72000;42.828;23.382;2023-12-22T01:47:42;25.40;;;7.68;;
82372;SDS011;72000;42.828;23.382;2023-12-22T01:50:08;20.95;;;7.55;;
82372;SDS011;72000;42.828;23.382;2023-12-22T01:52:36;19.58;;;7.03;;
82372;SDS011;72000;42.828;23.382;2023-12-22T01:55:03;18.50;;;7.28;;
82372;SDS011;72000;42.828;23.382;2023-12-22T01:57:30;26.23;;;8.43;;
82372;SDS011;72000;42.828;23.382;2023-12-22T01:59:55;21.15;;;7.75;;
82372;SDS011;72000;42.828;23.382;2023-12-22T02:02:21;24.85;;;9.77;;
82372;SDS011;72000;42.828;23.382;2023-12-22T02:04:47;23.02;;;8.52;;
82372;SDS011;72000;42.828;23.382;2023-12-22T02:07:13;23.00;;;8.70;;
82372;SDS011;72000;42.828;23.382;2023-12-22T02:09:38;17.67;;;7.18;;
82372;SDS011;72000;42.828;23.382;2023-12-22T02:12:04;20.70;;;7.20;;
82372;SDS011;72000;42.828;23.382;2023-12-22T02:14:30;18.65;;;6.90;;
82372;SDS011;72000;42.828;23.382;2023-12-22T02:17:11;19.33;;;6.47;;
82372;SDS011;72000;42.828;23.382;2023-12-22T02:19:42;16.10;;;5.68;;
82372;SDS011;72000;42.828;23.382;2023-12-22T02:22:09;16.17;;;6.63;;
82372;SDS011;72000;42.828;23.382;2023-12-22T02:27:04;19.95;;;6.63;;
82372;SDS011;72000;42.828;23.382;2023-12-22T02:29:42;15.57;;;6.10;;
82372;SDS011;72000;42.828;23.382;2023-12-22T02:32:12;17.85;;;6.43;;
82372;SDS011;72000;42.828;23.382;2023-12-22T02:34:42;16.52;;;6.40;;
82372;SDS011;72000;42.828;23.382;2023-12-22T02:37:08;14.68;;;6.22;;
82372;SDS011;72000;42.828;23.382;2023-12-22T02:39:35;14.27;;;5.68;;
82372;SDS011;72000;42.828;23.382;2023-12-22T02:42:01;13.85;;;5.70;;
82372;SDS011;72000;42.828;23.382;2023-12-22T02:44:27;15.73;;;5.43;;
82372;SDS011;72000;42.828;23.382;2023-12-22T02:46:53;14.25;;;4.90;;
82372;SDS011;72000;42.828;23.382;2023-12-22T02:49:18;13.75;;;4.65;;
82372;SDS011;72000;42.828;23.382;2023-12-22T02:51:44;9.32;;;3.85;;
82372;SDS011;72000;42.828;23.382;2023-12-22T02:54:10;8.93;;;3.63;;
82372;SDS011;72000;42.828;23.382;2023-12-22T02:56:35;6.95;;;3.30;;
82372;SDS011;72000;42.828;23.382;2023-12-22T02:59:01;9.32;;;3.60;;
82372;SDS011;72000;42.828;23.382;2023-12-22T03:01:27;10.55;;;3.58;;
82372;SDS011;72000;42.828;23.382;2023-12-22T03:03:52;10.20;;;3.42;;
82372;SDS011;72000;42.828;23.382;2023-12-22T03:06:18;9.30;;;3.72;;
82372;SDS011;72000;42.828;23.382;2023-12-22T03:08:43;8.40;;;3.33;;
82372;SDS011;72000;42.828;23.382;2023-12-22T03:11:09;7.88;;;3.50;;
82372;SDS011;72000;42.828;23.382;2023-12-22T03:13:34;8.27;;;3.50;;
82372;SDS011;72000;42.828;23.382;2023-12-22T03:16:00;8.43;;;3.10;;
82372;SDS011;72000;42.828;23.382;2023-12-22T03:18:25;7.88;;;3.00;;
82372;SDS011;72000;42.828;23.382;2023-12-22T03:20:51;6.55;;;3.00;;
82372;SDS011;72000;42.828;23.382;2023-12-22T03:23:16;8.38;;;3.22;;
82372;SDS011;72000;42.828;23.382;2023-12-22T03:25:42;8.77;;;3.15;;
82372;SDS011;72000;42.828;23.382;2023-12-22T03:28:07;6.15;;;2.70;;
82372;SDS011;72000;42.828;23.382;2023-12-22T03:30:33;8.35;;;3.10;;
82372;SDS011;72000;42.828;23.382;2023-12-22T03:33:00;7.63;;;2.88;;
82372;SDS011;72000;42.828;23.382;2023-12-22T03:35:26;8.75;;;2.78;;
82372;SDS011;72000;42.828;23.382;2023-12-22T03:37:52;7.28;;;2.63;;
82372;SDS011;72000;42.828;23.382;2023-12-22T03:40:17;7.10;;;2.70;;
82372;SDS011;72000;42.828;23.382;2023-12-22T03:42:43;6.25;;;2.60;;
82372;SDS011;72000;42.828;23.382;2023-12-22T03:45:09;6.80;;;2.80;;
82372;SDS011;72000;42.828;23.382;2023-12-22T03:47:34;6.43;;;2.55;;
82372;SDS011;72000;42.828;23.382;2023-12-22T03:50:00;6.57;;;2.58;;
82372;SDS011;72000;42.828;23.382;2023-12-22T03:52:25;6.60;;;2.35;;
82372;SDS011;72000;42.828;23.382;2023-12-22T03:54:51;6.40;;;2.40;;
82372;SDS011;72000;42.828;23.382;2023-12-22T03:57:17;5.50;;;2.28;;
82372;SDS011;72000;42.828;23.382;2023-12-22T03:59:42;6.55;;;2.42;;
82372;SDS011;72000;42.828;23.382;2023-12-22T04:02:08;6.75;;;2.40;;
82372;SDS011;72000;42.828;23.382;2023-12-22T04:04:37;5.63;;;2.40;;
82372;SDS011;72000;42.828;23.382;2023-12-22T04:07:03;5.90;;;2.20;;
82372;SDS011;72000;42.828;23.382;2023-12-22T04:09:29;4.97;;;2.13;;
82372;SDS011;72000;42.828;23.382;2023-12-22T04:11:54;5.57;;;2.38;;
82372;SDS011;72000;42.828;23.382;2023-12-22T04:14:20;6.47;;;2.33;;
82372;SDS011;72000;42.828;23.382;2023-12-22T04:16:45;6.72;;;2.35;;
82372;SDS011;72000;42.828;23.382;2023-12-22T04:19:11;5.53;;;2.15;;
82372;SDS011;72000;42.828;23.382;2023-12-22T04:21:36;5.07;;;2.00;;
82372;SDS011;72000;42.828;23.382;2023-12-22T04:24:02;4.72;;;2.03;;
82372;SDS011;72000;42.828;23.382;2023-12-22T04:26:28;6.18;;;2.30;;
82372;SDS011;72000;42.828;23.382;2023-12-22T04:28:53;5.60;;;2.08;;
82372;SDS011;72000;42.828;23.382;2023-12-22T04:31:19;5.00;;;2.20;;
82372;SDS011;72000;42.828;23.382;2023-12-22T04:33:44;6.00;;;2.42;;
82372;SDS011;72000;42.828;23.382;2023-12-22T04:36:10;14.88;;;5.95;;
82372;SDS011;72000;42.828;23.382;2023-12-22T04:38:36;15.57;;;6.43;;
82372;SDS011;72000;42.828;23.382;2023-12-22T04:41:01;15.43;;;6.47;;
82372;SDS011;72000;42.828;23.382;2023-12-22T04:43:27;16.33;;;7.00;;
82372;SDS011;72000;42.828;23.382;2023-12-22T04:45:52;18.98;;;8.07;;
82372;SDS011;72000;42.828;23.382;2023-12-22T04:48:19;19.13;;;7.22;;
82372;SDS011;72000;42.828;23.382;2023-12-22T04:50:44;21.63;;;9.02;;
82372;SDS011;72000;42.828;23.382;2023-12-22T04:53:10;19.58;;;8.63;;
82372;SDS011;72000;42.828;23.382;2023-12-22T04:55:35;20.52;;;8.55;;
82372;SDS011;72000;42.828;23.382;2023-12-22T04:58:01;21.08;;;8.27;;
82372;SDS011;72000;42.828;23.382;2023-12-22T05:00:27;20.65;;;8.20;;
82372;SDS011;72000;42.828;23.382;2023-12-22T05:02:52;20.75;;;8.25;;
82372;SDS011;72000;42.828;23.382;2023-12-22T05:05:21;20.40;;;8.20;;
82372;SDS011;72000;42.828;23.382;2023-12-22T05:07:46;18.23;;;7.82;;
82372;SDS011;72000;42.828;23.382;2023-12-22T05:10:12;17.30;;;6.70;;
82372;SDS011;72000;42.828;23.382;2023-12-22T05:12:40;12.70;;;4.97;;
82372;SDS011;72000;42.828;23.382;2023-12-22T05:15:06;14.98;;;4.78;;
82372;SDS011;72000;42.828;23.382;2023-12-22T05:17:32;20.08;;;8.48;;
82372;SDS011;72000;42.828;23.382;2023-12-22T05:20:01;24.42;;;8.52;;
82372;SDS011;72000;42.828;23.382;2023-12-22T05:22:26;20.80;;;7.78;;
82372;SDS011;72000;42.828;23.382;2023-12-22T05:24:55;13.30;;;4.28;;
82372;SDS011;72000;42.828;23.382;2023-12-22T05:27:21;6.75;;;2.70;;
82372;SDS011;72000;42.828;23.382;2023-12-22T05:29:47;6.25;;;2.70;;
82372;SDS011;72000;42.828;23.382;2023-12-22T05:32:12;6.30;;;2.35;;
82372;SDS011;72000;42.828;23.382;2023-12-22T05:34:38;5.32;;;2.15;;
82372;SDS011;72000;42.828;23.382;2023-12-22T05:37:03;7.15;;;2.50;;
82372;SDS011;72000;42.828;23.382;2023-12-22T05:39:29;6.97;;;2.60;;
82372;SDS011;72000;42.828;23.382;2023-12-22T05:41:55;13.07;;;4.68;;
82372;SDS011;72000;42.828;23.382;2023-12-22T05:44:20;6.97;;;2.83;;
82372;SDS011;72000;42.828;23.382;2023-12-22T05:46:47;8.18;;;2.78;;
82372;SDS011;72000;42.828;23.382;2023-12-22T05:49:13;5.90;;;2.42;;
82372;SDS011;72000;42.828;23.382;2023-12-22T05:51:38;6.35;;;2.45;;
82372;SDS011;72000;42.828;23.382;2023-12-22T05:54:08;10.10;;;5.07;;
82372;SDS011;72000;42.828;23.382;2023-12-22T05:56:37;9.13;;;4.00;;
82372;SDS011;72000;42.828;23.382;2023-12-22T05:59:05;8.68;;;3.22;;
82372;SDS011;72000;42.828;23.382;2023-12-22T06:01:31;7.97;;;3.38;;
82372;SDS011;72000;42.828;23.382;2023-12-22T06:03:56;9.15;;;3.33;;
82372;SDS011;72000;42.828;23.382;2023-12-22T06:06:25;7.18;;;3.10;;
82372;SDS011;72000;42.828;23.382;2023-12-22T06:08:53;6.72;;;2.78;;
82372;SDS011;72000;42.828;23.382;2023-12-22T06:11:18;6.93;;;3.10;;
82372;SDS011;72000;42.828;23.382;2023-12-22T06:13:47;6.80;;;2.80;;
82372;SDS011;72000;42.828;23.382;2023-12-22T06:16:13;6.10;;;2.72;;
82372;SDS011;72000;42.828;23.382;2023-12-22T06:18:39;7.22;;;2.20;;
82372;SDS011;72000;42.828;23.382;2023-12-22T06:21:06;6.97;;;2.63;;
82372;SDS011;72000;42.828;23.382;2023-12-22T06:23:32;5.70;;;2.40;;
82372;SDS011;72000;42.828;23.382;2023-12-22T06:25:57;5.03;;;2.00;;
82372;SDS011;72000;42.828;23.382;2023-12-22T06:28:23;7.35;;;2.55;;
82372;SDS011;72000;42.828;23.382;2023-12-22T06:30:48;7.55;;;3.20;;
82372;SDS011;72000;42.828;23.382;2023-12-22T06:33:14;5.53;;;2.50;;
82372;SDS011;72000;42.828;23.382;2023-12-22T06:35:39;7.75;;;3.75;;
82372;SDS011;72000;42.828;23.382;2023-12-22T06:38:10;9.18;;;4.35;;
82372;SDS011;72000;42.828;23.382;2023-12-22T06:40:36;6.70;;;2.80;;
82372;SDS011;72000;42.828;23.382;2023-12-22T06:43:02;6.57;;;2.50;;
82372;SDS011;72000;42.828;23.382;2023-12-22T06:45:29;8.00;;;3.72;;
82372;SDS011;72000;42.828;23.382;2023-12-22T06:47:55;8.43;;;3.47;;
82372;SDS011;72000;42.828;23.382;2023-12-22T06:50:20;9.75;;;3.40;;
82372;SDS011;72000;42.828;23.382;2023-12-22T06:52:46;7.28;;;3.03;;
82372;SDS011;72000;42.828;23.382;2023-12-22T06:55:11;7.95;;;2.80;;
82372;SDS011;72000;42.828;23.382;2023-12-22T06:57:37;8.45;;;2.72;;
82372;SDS011;72000;42.828;23.382;2023-12-22T07:00:03;8.25;;;2.97;;
82372;SDS011;72000;42.828;23.382;2023-12-22T07:02:29;5.15;;;2.25;;
82372;SDS011;72000;42.828;23.382;2023-12-22T07:07:43;10.38;;;3.08;;
82372;SDS011;72000;42.828;23.382;2023-12-22T07:10:08;6.28;;;2.55;;
82372;SDS011;72000;42.828;23.382;2023-12-22T07:12:36;6.55;;;2.63;;
82372;SDS011;72000;42.828;23.382;2023-12-22T07:15:01;6.13;;;2.40;;
82372;SDS011;72000;42.828;23.382;2023-12-22T07:17:27;5.70;;;2.53;;
82372;SDS011;72000;42.828;23.382;2023-12-22T07:19:53;7.03;;;2.28;;
82372;SDS011;72000;42.828;23.382;2023-12-22T07:22:22;6.93;;;2.55;;
82372;SDS011;72000;42.828;23.382;2023-12-22T07:24:48;5.82;;;2.25;;
82372;SDS011;72000;42.828;23.382;2023-12-22T07:27:14;6.28;;;2.60;;
82372;SDS011;72000;42.828;23.382;2023-12-22T07:29:40;5.60;;;2.28;;
82372;SDS011;72000;42.828;23.382;2023-12-22T07:32:05;5.38;;;2.05;;
82372;SDS011;72000;42.828;23.382;2023-12-22T07:34:31;5.63;;;2.10;;
82372;SDS011;72000;42.828;23.382;2023-12-22T07:36:56;5.93;;;2.22;;
82372;SDS011;72000;42.828;23.382;2023-12-22T07:39:22;5.43;;;2.40;;
82372;SDS011;72000;42.828;23.382;2023-12-22T07:41:48;11.60;;;5.07;;
82372;SDS011;72000;42.828;23.382;2023-12-22T07:44:13;12.20;;;4.40;;
82372;SDS011;72000;42.828;23.382;2023-12-22T07:46:39;7.45;;;3.42;;
82372;SDS011;72000;42.828;23.382;2023-12-22T07:49:05;7.25;;;2.60;;
82372;SDS011;72000;42.828;23.382;2023-12-22T07:51:30;7.57;;;2.97;;
82372;SDS011;72000;42.828;23.382;2023-12-22T07:53:56;5.10;;;2.35;;
82372;SDS011;72000;42.828;23.382;2023-12-22T07:56:22;5.95;;;2.25;;
82372;SDS011;72000;42.828;23.382;2023-12-22T07:58:48;4.80;;;2.20;;
82372;SDS011;72000;42.828;23.382;2023-12-22T08:01:13;7.93;;;3.00;;
82372;SDS011;72000;42.828;23.382;2023-12-22T08:03:40;6.50;;;2.60;;
82372;SDS011;72000;42.828;23.382;2023-12-22T08:06:06;7.40;;;2.80;;
82372;SDS011;72000;42.828;23.382;2023-12-22T08:08:32;5.70;;;2.33;;
82372;SDS011;72000;42.828;23.382;2023-12-22T08:10:58;6.60;;;2.47;;
82372;SDS011;72000;42.828;23.382;2023-12-22T08:13:24;7.60;;;2.22;;
82372;SDS011;72000;42.828;23.382;2023-12-22T08:15:50;6.47;;;2.40;;
82372;SDS011;72000;42.828;23.382;2023-12-22T08:18:15;5.63;;;2.30;;
82372;SDS011;72000;42.828;23.382;2023-12-22T08:20:41;7.00;;;2.60;;
82372;SDS011;72000;42.828;23.382;2023-12-22T08:23:07;5.63;;;2.47;;
82372;SDS011;72000;42.828;23.382;2023-12-22T08:25:32;6.18;;;2.38;;
82372;SDS011;72000;42.828;23.382;2023-12-22T08:27:58;6.50;;;2.40;;
82372;SDS011;72000;42.828;23.382;2023-12-22T08:30:23;6.90;;;2.60;;
82372;SDS011;72000;42.828;23.382;2023-12-22T08:32:50;6.78;;;2.42;;
82372;SDS011;72000;42.828;23.382;2023-12-22T08:35:15;9.18;;;2.80;;
82372;SDS011;72000;42.828;23.382;2023-12-22T08:37:42;7.18;;;2.63;;
82372;SDS011;72000;42.828;23.382;2023-12-22T08:40:07;5.50;;;2.53;;
82372;SDS011;72000;42.828;23.382;2023-12-22T08:42:33;6.93;;;2.72;;
82372;SDS011;72000;42.828;23.382;2023-12-22T08:44:59;6.63;;;2.88;;
82372;SDS011;72000;42.828;23.382;2023-12-22T08:47:24;9.65;;;4.28;;
82372;SDS011;72000;42.828;23.382;2023-12-22T08:49:50;8.55;;;3.25;;
82372;SDS011;72000;42.828;23.382;2023-12-22T08:52:16;6.53;;;2.53;;
82372;SDS011;72000;42.828;23.382;2023-12-22T08:54:41;6.35;;;2.80;;
82372;SDS011;72000;42.828;23.382;2023-12-22T08:57:10;6.43;;;2.70;;
82372;SDS011;72000;42.828;23.382;2023-12-22T08:59:35;6.25;;;2.72;;
82372;SDS011;72000;42.828;23.382;2023-12-22T09:02:01;6.93;;;2.80;;
82372;SDS011;72000;42.828;23.382;2023-12-22T09:04:26;5.60;;;2.35;;
82372;SDS011;72000;42.828;23.382;2023-12-22T09:06:52;6.93;;;2.50;;
82372;SDS011;72000;42.828;23.382;2023-12-22T09:09:20;5.72;;;2.38;;
82372;SDS011;72000;42.828;23.382;2023-12-22T09:11:47;6.47;;;2.55;;
82372;SDS011;72000;42.828;23.382;2023-12-22T09:14:12;6.35;;;2.50;;
82372;SDS011;72000;42.828;23.382;2023-12-22T09:16:38;6.00;;;2.40;;
82372;SDS011;72000;42.828;23.382;2023-12-22T09:19:04;5.55;;;2.20;;
82372;SDS011;72000;42.828;23.382;2023-12-22T09:21:32;6.93;;;2.53;;
82372;SDS011;72000;42.828;23.382;2023-12-22T09:23:58;7.25;;;2.63;;
82372;SDS011;72000;42.828;23.382;2023-12-22T09:26:23;7.07;;;2.47;;
82372;SDS011;72000;42.828;23.382;2023-12-22T09:28:49;4.72;;;2.17;;
82372;SDS011;72000;42.828;23.382;2023-12-22T09:31:14;7.20;;;2.35;;
82372;SDS011;72000;42.828;23.382;2023-12-22T09:33:43;6.35;;;2.60;;
82372;SDS011;72000;42.828;23.382;2023-12-22T09:36:11;5.55;;;2.22;;
82372;SDS011;72000;42.828;23.382;2023-12-22T09:38:37;7.47;;;2.33;;
82372;SDS011;72000;42.828;23.382;2023-12-22T09:41:02;6.30;;;2.33;;
82372;SDS011;72000;42.828;23.382;2023-12-22T09:43:30;6.72;;;2.50;;
82372;SDS011;72000;42.828;23.382;2023-12-22T09:45:57;4.57;;;2.10;;
82372;SDS011;72000;42.828;23.382;2023-12-22T09:48:26;7.30;;;2.40;;
82372;SDS011;72000;42.828;23.382;2023-12-22T09:50:52;5.70;;;2.38;;
82372;SDS011;72000;42.828;23.382;2023-12-22T09:53:21;6.65;;;2.78;;
82372;SDS011;72000;42.828;23.382;2023-12-22T09:55:49;7.50;;;2.70;;
82372;SDS011;72000;42.828;23.382;2023-12-22T09:58:15;6.50;;;2.85;;
82372;SDS011;72000;42.828;23.382;2023-12-22T10:00:47;8.80;;;3.35;;
82372;SDS011;72000;42.828;23.382;2023-12-22T10:03:13;7.90;;;3.45;;
82372;SDS011;72000;42.828;23.382;2023-12-22T10:05:44;9.48;;;3.60;;
82372;SDS011;72000;42.828;23.382;2023-12-22T10:08:10;9.57;;;4.05;;
82372;SDS011;72000;42.828;23.382;2023-12-22T10:10:35;10.02;;;3.60;;
82372;SDS011;72000;42.828;23.382;2023-12-22T10:13:04;8.88;;;3.33;;
82372;SDS011;72000;42.828;23.382;2023-12-22T10:15:34;7.60;;;3.15;;
82372;SDS011;72000;42.828;23.382;2023-12-22T10:18:00;7.35;;;3.25;;
82372;SDS011;72000;42.828;23.382;2023-12-22T10:20:25;10.38;;;3.28;;
82372;SDS011;72000;42.828;23.382;2023-12-22T10:22:51;8.20;;;3.28;;
82372;SDS011;72000;42.828;23.382;2023-12-22T10:25:19;8.43;;;3.70;;
82372;SDS011;72000;42.828;23.382;2023-12-22T10:27:45;9.20;;;3.25;;
82372;SDS011;72000;42.828;23.382;2023-12-22T10:30:11;7.88;;;2.83;;
82372;SDS011;72000;42.828;23.382;2023-12-22T10:32:40;6.82;;;2.67;;
82372;SDS011;72000;42.828;23.382;2023-12-22T10:35:09;6.07;;;2.80;;
82372;SDS011;72000;42.828;23.382;2023-12-22T10:37:35;5.32;;;2.40;;
82372;SDS011;72000;42.828;23.382;2023-12-22T10:40:03;6.80;;;2.50;;
82372;SDS011;72000;42.828;23.382;2023-12-22T10:42:31;5.18;;;2.20;;
82372;SDS011;72000;42.828;23.382;2023-12-22T10:44:57;6.18;;;2.42;;
82372;SDS011;72000;42.828;23.382;2023-12-22T10:47:23;8.65;;;3.08;;
82372;SDS011;72000;42.828;23.382;2023-12-22T10:49:48;6.32;;;2.47;;
82372;SDS011;72000;42.828;23.382;2023-12-22T10:52:17;5.93;;;2.20;;
82372;SDS011;72000;42.828;23.382;2023-12-22T10:54:44;6.50;;;2.15;;
82372;SDS011;72000;42.828;23.382;2023-12-22T10:57:10;6.38;;;2.58;;
82372;SDS011;72000;42.828;23.382;2023-12-22T11:02:04;4.55;;;2.00;;
82372;SDS011;72000;42.828;23.382;2023-12-22T11:04:30;6.38;;;2.35;;
82372;SDS011;72000;42.828;23.382;2023-12-22T11:06:59;6.28;;;2.50;;
82372;SDS011;72000;42.828;23.382;2023-12-22T11:09:30;6.55;;;2.50;;
82372;SDS011;72000;42.828;23.382;2023-12-22T11:11:56;6.65;;;2.60;;
82372;SDS011;72000;42.828;23.382;2023-12-22T11:14:22;7.22;;;2.90;;
82372;SDS011;72000;42.828;23.382;2023-12-22T11:16:49;6.05;;;2.25;;
82372;SDS011;72000;42.828;23.382;2023-12-22T11:19:15;5.85;;;2.15;;
82372;SDS011;72000;42.828;23.382;2023-12-22T11:21:40;5.95;;;2.58;;
82372;SDS011;72000;42.828;23.382;2023-12-22T11:24:07;7.60;;;2.55;;
82372;SDS011;72000;42.828;23.382;2023-12-22T11:26:35;6.22;;;2.58;;
82372;SDS011;72000;42.828;23.382;2023-12-22T11:29:02;4.32;;;1.73;;
82372;SDS011;72000;42.828;23.382;2023-12-22T11:31:28;5.28;;;1.90;;
82372;SDS011;72000;42.828;23.382;2023-12-22T11:34:00;3.72;;;1.27;;
82372;SDS011;72000;42.828;23.382;2023-12-22T11:36:26;3.75;;;1.30;;
82372;SDS011;72000;42.828;23.382;2023-12-22T11:38:55;2.90;;;1.20;;
82372;SDS011;72000;42.828;23.382;2023-12-22T11:41:25;3.45;;;1.30;;
82372;SDS011;72000;42.828;23.382;2023-12-22T11:43:52;3.25;;;1.40;;
82372;SDS011;72000;42.828;23.382;2023-12-22T11:46:18;3.78;;;1.20;;
82372;SDS011;72000;42.828;23.382;2023-12-22T11:48:47;3.45;;;1.40;;
82372;SDS011;72000;42.828;23.382;2023-12-22T11:51:14;3.88;;;1.13;;
82372;SDS011;72000;42.828;23.382;2023-12-22T11:53:39;3.55;;;1.20;;
82372;SDS011;72000;42.828;23.382;2023-12-22T11:56:06;2.75;;;1.27;;
82372;SDS011;72000;42.828;23.382;2023-12-22T11:58:42;3.65;;;1.30;;
82372;SDS011;72000;42.828;23.382;2023-12-22T12:01:20;3.72;;;1.38;;
82372;SDS011;72000;42.828;23.382;2023-12-22T12:08:51;4.60;;;1.70;;
82372;SDS011;72000;42.828;23.382;2023-12-22T12:11:21;4.03;;;1.27;;
82372;SDS011;72000;42.828;23.382;2023-12-22T12:14:08;3.47;;;1.30;;
82372;SDS011;72000;42.828;23.382;2023-12-22T12:16:41;5.30;;;1.75;;
82372;SDS011;72000;42.828;23.382;2023-12-22T12:19:08;4.10;;;1.33;;
82372;SDS011;72000;42.828;23.382;2023-12-22T12:21:34;4.38;;;1.60;;
82372;SDS011;72000;42.828;23.382;2023-12-22T12:23:59;4.43;;;1.60;;
82372;SDS011;72000;42.828;23.382;2023-12-22T12:26:25;4.85;;;1.70;;
82372;SDS011;72000;42.828;23.382;2023-12-22T12:28:51;5.70;;;2.10;;
82372;SDS011;72000;42.828;23.382;2023-12-22T12:31:17;6.68;;;2.17;;
82372;SDS011;72000;42.828;23.382;2023-12-22T12:33:43;9.20;;;2.22;;
82372;SDS011;72000;42.828;23.382;2023-12-22T12:36:09;4.55;;;1.90;;
82372;SDS011;72000;42.828;23.382;2023-12-22T12:41:23;4.45;;;1.90;;
82372;SDS011;72000;42.828;23.382;2023-12-22T12:43:55;5.38;;;2.00;;
82372;SDS011;72000;42.828;23.382;2023-12-22T12:46:21;5.53;;;1.83;;
82372;SDS011;72000;42.828;23.382;2023-12-22T12:48:47;4.55;;;1.80;;
82372;SDS011;72000;42.828;23.382;2023-12-22T12:51:13;4.25;;;1.70;;
82372;SDS011;72000;42.828;23.382;2023-12-22T12:53:38;5.07;;;1.95;;
82372;SDS011;72000;42.828;23.382;2023-12-22T12:56:04;5.38;;;2.03;;
82372;SDS011;72000;42.828;23.382;2023-12-22T12:58:30;6.30;;;2.60;;
82372;SDS011;72000;42.828;23.382;2023-12-22T13:03:53;6.43;;;2.33;;
82372;SDS011;72000;42.828;23.382;2023-12-22T13:06:22;5.82;;;2.55;;
82372;SDS011;72000;42.828;23.382;2023-12-22T13:08:51;7.82;;;2.88;;
82372;SDS011;72000;42.828;23.382;2023-12-22T13:11:24;6.13;;;2.70;;
82372;SDS011;72000;42.828;23.382;2023-12-22T13:14:03;6.85;;;3.00;;
82372;SDS011;72000;42.828;23.382;2023-12-22T13:16:30;8.50;;;3.45;;
82372;SDS011;72000;42.828;23.382;2023-12-22T13:18:59;8.68;;;3.47;;
82372;SDS011;72000;42.828;23.382;2023-12-22T13:21:28;7.28;;;3.08;;
82372;SDS011;72000;42.828;23.382;2023-12-22T13:24:12;9.48;;;3.15;;
82372;SDS011;72000;42.828;23.382;2023-12-22T13:26:40;6.32;;;2.80;;
82372;SDS011;72000;42.828;23.382;2023-12-22T13:29:08;6.13;;;2.40;;
82372;SDS011;72000;42.828;23.382;2023-12-22T13:31:38;6.63;;;2.45;;
82372;SDS011;72000;42.828;23.382;2023-12-22T13:34:12;7.38;;;2.67;;
82372;SDS011;72000;42.828;23.382;2023-12-22T13:36:39;7.10;;;2.47;;
82372;SDS011;72000;42.828;23.382;2023-12-22T13:39:05;7.20;;;2.47;;
82372;SDS011;72000;42.828;23.382;2023-12-22T13:41:38;5.90;;;2.40;;
82372;SDS011;72000;42.828;23.382;2023-12-22T13:44:07;5.28;;;2.15;;
82372;SDS011;72000;42.828;23.382;2023-12-22T13:46:33;5.53;;;2.10;;
82372;SDS011;72000;42.828;23.382;2023-12-22T13:49:05;6.25;;;2.30;;
82372;SDS011;72000;42.828;23.382;2023-12-22T13:51:40;4.63;;;1.83;;
82372;SDS011;72000;42.828;23.382;2023-12-22T13:54:06;5.47;;;2.20;;
82372;SDS011;72000;42.828;23.382;2023-12-22T13:56:33;6.15;;;2.30;;
82372;SDS011;72000;42.828;23.382;2023-12-22T13:59:00;6.15;;;2.25;;
82372;SDS011;72000;42.828;23.382;2023-12-22T14:01:26;6.13;;;2.70;;
82372;SDS011;72000;42.828;23.382;2023-12-22T14:03:52;7.75;;;2.90;;
82372;SDS011;72000;42.828;23.382;2023-12-22T14:06:19;6.53;;;2.92;;
82372;SDS011;72000;42.828;23.382;2023-12-22T14:08:44;6.72;;;3.28;;
82372;SDS011;72000;42.828;23.382;2023-12-22T14:11:10;7.50;;;3.28;;
82372;SDS011;72000;42.828;23.382;2023-12-22T14:13:35;9.05;;;3.80;;
82372;SDS011;72000;42.828;23.382;2023-12-22T14:16:05;7.53;;;3.10;;
82372;SDS011;72000;42.828;23.382;2023-12-22T14:18:31;7.03;;;3.10;;
82372;SDS011;72000;42.828;23.382;2023-12-22T14:20:56;7.72;;;3.30;;
82372;SDS011;72000;42.828;23.382;2023-12-22T14:23:23;8.43;;;3.28;;
82372;SDS011;72000;42.828;23.382;2023-12-22T14:25:49;6.78;;;2.90;;
82372;SDS011;72000;42.828;23.382;2023-12-22T14:28:15;7.32;;;2.80;;
82372;SDS011;72000;42.828;23.382;2023-12-22T14:30:44;8.40;;;2.95;;
82372;SDS011;72000;42.828;23.382;2023-12-22T14:33:09;7.35;;;3.00;;
82372;SDS011;72000;42.828;23.382;2023-12-22T14:35:38;7.63;;;3.15;;
82372;SDS011;72000;42.828;23.382;2023-12-22T14:38:06;7.93;;;3.20;;
82372;SDS011;72000;42.828;23.382;2023-12-22T14:40:32;7.80;;;3.13;;
82372;SDS011;72000;42.828;23.382;2023-12-22T14:42:58;6.70;;;2.90;;
82372;SDS011;72000;42.828;23.382;2023-12-22T14:45:27;7.43;;;3.33;;